createdAt,value
2022-08-30T00:01:21.016Z,78
2022-08-30T00:11:21.211Z,78
2022-08-30T00:21:21.605Z,79
2022-08-30T00:31:21.992Z,79
2022-08-30T00:41:22.187Z,79
2022-08-30T00:51:23.027Z,80
2022-08-30T01:01:23.477Z,80
2022-08-30T01:11:24.409Z,80
2022-08-30T01:21:24.585Z,80
2022-08-30T01:31:24.680Z,80
2022-08-30T01:41:25.760Z,80
2022-08-30T01:51:26.176Z,80
2022-08-30T02:01:26.305Z,81
2022-08-30T02:11:27.322Z,81
2022-08-30T02:21:27.932Z,81
2022-08-30T02:31:28.425Z,82
2022-08-30T02:41:28.564Z,82
2022-08-30T02:51:29.337Z,83
2022-08-30T03:01:29.831Z,83
2022-08-30T03:11:29.880Z,84
2022-08-30T03:31:31.716Z,86
2022-08-30T03:41:32.120Z,86
2022-08-30T03:51:32.766Z,87
2022-08-30T04:01:33.859Z,87
2022-08-30T04:11:33.933Z,87
2022-08-30T04:21:36.771Z,87
2022-08-30T04:31:35.283Z,88
2022-08-30T04:41:36.295Z,89
2022-08-30T04:51:37.170Z,89
2022-08-30T05:01:45.162Z,90
2022-08-30T05:11:38.542Z,91
2022-08-30T05:21:38.878Z,91
2022-08-30T05:31:39.913Z,91
2022-08-30T05:41:40.919Z,92
2022-08-30T05:51:43.515Z,91
2022-08-30T06:01:41.901Z,91
2022-08-30T06:11:41.786Z,90
2022-08-30T06:21:42.331Z,90
2022-08-30T06:31:43.389Z,89
2022-08-30T06:41:44.362Z,88
2022-08-30T06:51:45.065Z,87
2022-08-30T07:01:45.487Z,86
2022-08-30T07:11:46.467Z,84
2022-08-30T07:21:46.926Z,81
2022-08-30T07:31:47.496Z,81
2022-08-30T07:41:48.080Z,79
2022-08-30T07:51:48.172Z,78
2022-08-30T07:54:26.556Z,78
2022-08-30T08:01:56.906Z,77
2022-08-30T08:22:15.590Z,75
2022-08-30T08:31:57.920Z,75
2022-08-30T08:41:58.732Z,74
2022-08-30T08:51:58.962Z,74
2022-08-30T09:01:59.275Z,73
2022-08-30T09:11:59.945Z,72
2022-08-30T09:22:00.013Z,72
2022-08-30T09:32:10.415Z,71
2022-08-30T09:42:00.665Z,69
2022-08-30T09:52:01.201Z,69
2022-08-30T10:22:02.550Z,65
2022-08-30T10:32:03.430Z,65
2022-08-30T10:42:04.108Z,64
2022-08-30T10:52:04.767Z,64
2022-08-30T11:12:06.043Z,61
2022-08-30T11:22:06.120Z,60
2022-08-30T11:32:06.491Z,59
2022-08-30T11:52:24.019Z,57
2022-08-30T12:02:09.092Z,57
2022-08-30T12:12:09.117Z,55
2022-08-30T12:22:09.996Z,56
2022-08-30T12:32:10.449Z,55
2022-08-30T12:42:11.160Z,55
2022-08-30T12:52:11.271Z,55
2022-08-30T13:12:11.532Z,54
2022-08-30T13:22:12.083Z,54
2022-08-30T13:32:12.683Z,54
2022-08-30T13:42:33.004Z,54
2022-08-30T13:52:20.730Z,54
2022-08-30T14:02:14.417Z,53
2022-08-30T14:12:14.677Z,52
2022-08-30T14:22:15.095Z,52
2022-08-30T14:32:15.883Z,52
2022-08-30T14:42:18.849Z,53
2022-08-30T14:52:16.965Z,53
2022-08-30T15:02:18.034Z,52
2022-08-30T15:12:19.008Z,53
2022-08-30T15:22:19.722Z,52
2022-08-30T15:32:20.057Z,52
2022-08-30T15:42:21.021Z,52
2022-08-30T15:52:21.278Z,52
2022-08-30T16:02:22.076Z,52
2022-08-30T16:12:23.521Z,52
2022-08-30T16:22:22.521Z,52
2022-08-30T16:32:23.365Z,52
2022-08-30T16:42:23.948Z,52
2022-08-30T16:52:24.019Z,52
2022-08-30T17:12:25.503Z,53
2022-08-30T17:22:26.283Z,54
2022-08-30T17:32:27.247Z,54
2022-08-30T17:42:29.656Z,54
2022-08-30T17:52:28.810Z,55
2022-08-30T18:02:30.183Z,55
2022-08-30T18:12:29.808Z,56
2022-08-30T18:32:31.366Z,57
2022-08-30T18:42:31.197Z,58
2022-08-30T18:52:31.446Z,58
2022-08-30T19:02:31.891Z,58
2022-08-30T19:12:32.351Z,58
2022-08-30T19:22:44.811Z,58
2022-08-30T19:32:33.210Z,58
2022-08-30T19:42:34.019Z,58
2022-08-30T19:52:34.505Z,57
2022-08-30T20:02:34.640Z,57
2022-08-30T20:12:34.906Z,57
2022-08-30T20:22:35.126Z,57
2022-08-30T20:32:35.837Z,57
2022-08-30T20:42:36.772Z,57
2022-08-30T20:52:36.861Z,57
2022-08-30T21:02:38.066Z,57
2022-08-30T21:12:38.308Z,58
2022-08-30T21:22:38.786Z,58
2022-08-30T21:32:39.532Z,58
2022-08-30T21:42:40.061Z,59
2022-08-30T21:52:40.154Z,59
2022-08-30T22:02:41.178Z,59
2022-08-30T22:12:41.362Z,60
2022-08-30T22:22:41.640Z,61
2022-08-30T22:32:41.770Z,62
2022-08-30T22:42:42.455Z,63
2022-08-30T22:52:42.619Z,63
2022-08-30T23:02:43.470Z,64
2022-08-30T23:12:44.412Z,65
2022-08-30T23:22:44.844Z,67
2022-08-30T23:32:45.560Z,68
2022-08-30T23:42:45.660Z,70
